createdAt,value
2019-04-10T00:00:21.602Z,0.50
2019-04-10T00:02:48.064Z,0.40
2019-04-10T00:05:15.896Z,0.50
2019-04-10T00:07:42.213Z,0.40
2019-04-10T00:10:08.460Z,0.40
2019-04-10T00:12:34.519Z,0.40
2019-04-10T00:15:01.180Z,0.30
2019-04-10T00:17:27.271Z,0.40
2019-04-10T00:19:54.012Z,0.30
2019-04-10T00:22:20.175Z,0.30
2019-04-10T00:24:46.350Z,0.20
2019-04-10T00:27:12.593Z,0.20
2019-04-10T00:29:38.673Z,0.20
2019-04-10T00:32:05.662Z,0.20
2019-04-10T00:34:31.946Z,0.20
2019-04-10T00:36:58.135Z,0.10
2019-04-10T00:39:24.194Z,0.10
2019-04-10T00:41:50.239Z,0.00
2019-04-10T00:44:16.428Z,0.10
2019-04-10T00:46:42.558Z,0.00
2019-04-10T00:49:09.258Z,0.00
2019-04-10T00:51:35.543Z,0.00
2019-04-10T00:54:01.593Z,0.00
2019-04-10T00:56:28.361Z,-0.10
2019-04-10T00:58:55.417Z,-0.10
2019-04-10T01:01:21.663Z,-0.20
2019-04-10T01:03:48.991Z,-0.20
2019-04-10T01:06:15.935Z,-0.20
2019-04-10T01:08:42.763Z,-0.30
2019-04-10T01:13:35.580Z,-0.40
2019-04-10T01:16:03.133Z,-0.40
2019-04-10T01:18:29.193Z,-0.40
2019-04-10T01:20:55.679Z,-0.40
2019-04-10T01:23:22.560Z,-0.40
2019-04-10T01:25:48.688Z,-0.50
2019-04-10T01:28:14.735Z,-0.50
2019-04-10T01:30:40.783Z,-0.50
2019-04-10T01:33:08.154Z,-0.50
2019-04-10T01:35:34.419Z,-0.50
2019-04-10T01:38:02.383Z,-0.60
2019-04-10T01:40:28.925Z,-0.60
2019-04-10T01:43:08.267Z,-0.60
2019-04-10T01:45:23.108Z,-0.60
2019-04-10T01:47:49.159Z,-0.60
2019-04-10T01:50:15.215Z,-0.60
2019-04-10T01:52:41.463Z,-0.70
2019-04-10T01:55:17.270Z,-0.70
2019-04-10T01:57:36.663Z,-0.70
2019-04-10T02:00:04.995Z,-0.70
2019-04-10T02:02:33.588Z,-0.80
2019-04-10T02:05:00.652Z,-0.80
2019-04-10T02:07:26.883Z,-0.90
2019-04-10T02:09:53.933Z,-0.90
2019-04-10T02:12:20.724Z,-0.90
2019-04-10T02:14:46.967Z,-0.90
2019-04-10T02:17:13.028Z,-1.00
2019-04-10T02:19:39.107Z,-1.00
2019-04-10T02:22:05.183Z,-1.00
2019-04-10T02:24:31.385Z,-1.10
2019-04-10T02:26:58.177Z,-1.10
2019-04-10T02:29:24.359Z,-1.10
2019-04-10T02:31:51.170Z,-1.10
2019-04-10T02:34:19.364Z,-1.10
2019-04-10T02:36:46.965Z,-1.10
2019-04-10T02:39:24.394Z,-1.10
2019-04-10T02:41:41.867Z,-1.10
2019-04-10T02:44:08.198Z,-1.00
2019-04-10T02:46:34.390Z,-1.00
2019-04-10T02:49:00.539Z,-1.10
2019-04-10T02:51:27.082Z,-1.00
2019-04-10T02:53:55.680Z,-1.00
2019-04-10T02:56:22.994Z,-1.00
2019-04-10T02:58:51.358Z,-1.00
2019-04-10T03:01:17.650Z,-1.00
2019-04-10T03:03:44.651Z,-1.00
2019-04-10T03:06:11.491Z,-1.00
2019-04-10T03:08:54.923Z,-1.10
2019-04-10T03:11:10.562Z,-1.00
2019-04-10T03:13:35.788Z,-1.00
2019-04-10T03:16:03.125Z,-1.10
2019-04-10T03:18:29.336Z,-1.10
2019-04-10T03:20:56.385Z,-1.10
2019-04-10T03:23:23.202Z,-1.10
2019-04-10T03:25:49.416Z,-1.10
2019-04-10T03:28:16.601Z,-1.10
2019-04-10T03:30:44.300Z,-1.10
2019-04-10T03:33:31.161Z,-1.10
2019-04-10T03:35:57.029Z,-1.10
2019-04-10T03:38:23.754Z,-1.00
2019-04-10T03:40:49.926Z,-1.10
2019-04-10T03:43:15.988Z,-1.10
2019-04-10T03:45:42.036Z,-1.10
2019-04-10T03:48:08.465Z,-1.10
2019-04-10T03:50:34.677Z,-1.10
2019-04-10T03:53:00.735Z,-1.10
2019-04-10T03:55:27.115Z,-1.10
2019-04-10T03:57:53.435Z,-1.10
2019-04-10T04:00:20.946Z,-1.10
2019-04-10T04:02:48.148Z,-1.20
2019-04-10T04:05:14.755Z,-1.20
2019-04-10T04:07:41.106Z,-1.20
2019-04-10T04:10:09.312Z,-1.20
2019-04-10T04:12:35.615Z,-1.20
2019-04-10T04:15:03.545Z,-1.30
2019-04-10T04:17:30.461Z,-1.30
2019-04-10T04:19:56.742Z,-1.30
2019-04-10T04:22:22.936Z,-1.30
2019-04-10T04:24:50.252Z,-1.30
2019-04-10T04:27:17.507Z,-1.30
2019-04-10T04:29:45.412Z,-1.30
2019-04-10T04:32:11.635Z,-1.30
2019-04-10T04:34:38.678Z,-1.30
2019-04-10T04:37:05.155Z,-1.30
2019-04-10T04:39:31.550Z,-1.30
2019-04-10T04:41:58.721Z,1.10
2019-04-10T04:44:25.036Z,-1.30
2019-04-10T04:49:18.929Z,-1.20
2019-04-10T04:51:45.698Z,-1.30
2019-04-10T04:54:12.742Z,-1.20
2019-04-10T04:56:40.014Z,-1.20
2019-04-10T04:59:06.395Z,-1.10
2019-04-10T05:01:32.452Z,-1.00
2019-04-10T05:03:58.611Z,-0.90
2019-04-10T05:06:24.661Z,-0.90
2019-04-10T05:08:50.747Z,-0.80
2019-04-10T05:11:18.303Z,-0.70
2019-04-10T05:13:44.719Z,-0.60
2019-04-10T05:18:37.487Z,-0.40
2019-04-10T05:21:03.531Z,-0.10
2019-04-10T05:25:58.999Z,0.20
2019-04-10T05:28:26.289Z,0.50
2019-04-10T05:33:19.098Z,0.80
2019-04-10T05:35:45.164Z,0.90
2019-04-10T05:38:12.096Z,1.10
2019-04-10T05:40:38.466Z,1.30
2019-04-10T05:43:04.538Z,1.50
2019-04-10T05:45:31.634Z,1.60
2019-04-10T05:47:58.967Z,1.80
2019-04-10T05:50:25.750Z,1.80
2019-04-10T05:52:51.964Z,1.80
2019-04-10T05:55:18.011Z,1.90
2019-04-10T05:57:44.814Z,1.90
2019-04-10T06:00:13.459Z,2.00
2019-04-10T06:02:39.848Z,2.00
2019-04-10T06:05:07.747Z,2.00
2019-04-10T06:07:34.974Z,1.90
2019-04-10T06:12:30.578Z,2.10
2019-04-10T06:17:23.207Z,2.20
2019-04-10T06:19:49.423Z,2.20
2019-04-10T06:22:16.630Z,2.20
2019-04-10T06:24:42.838Z,2.30
2019-04-10T06:27:10.014Z,2.20
2019-04-10T06:29:37.156Z,2.20
2019-04-10T06:32:03.373Z,2.20
2019-04-10T06:34:30.165Z,2.30
2019-04-10T06:36:57.630Z,2.30
2019-04-10T06:39:24.768Z,2.30
2019-04-10T06:41:51.043Z,2.30
2019-04-10T06:44:17.485Z,2.30
2019-04-10T06:46:44.466Z,2.30
2019-04-10T06:49:10.812Z,2.40
2019-04-10T06:51:37.558Z,2.50
2019-04-10T06:54:08.099Z,2.60
2019-04-10T06:56:31.873Z,2.70
2019-04-10T06:58:58.334Z,2.80
2019-04-10T07:01:30.533Z,3.00
2019-04-10T07:04:01.722Z,3.10
2019-04-10T07:06:22.725Z,3.30
2019-04-10T07:08:50.861Z,3.50
2019-04-10T07:11:18.551Z,3.70
2019-04-10T07:13:44.930Z,4.10
2019-04-10T07:16:11.658Z,4.10
2019-04-10T07:18:39.682Z,4.30
2019-04-10T07:21:06.446Z,4.40
2019-04-10T07:23:33.793Z,4.60
2019-04-10T07:26:00.080Z,4.70
2019-04-10T07:28:26.277Z,4.80
2019-04-10T07:30:56.683Z,4.70
2019-04-10T07:33:21.058Z,4.70
2019-04-10T07:35:47.263Z,4.60
2019-04-10T07:38:13.931Z,4.60
2019-04-10T07:40:40.697Z,4.70
2019-04-10T07:43:06.926Z,4.80
2019-04-10T07:45:35.326Z,4.70
2019-04-10T07:48:00.939Z,4.70
2019-04-10T07:50:28.100Z,4.80
2019-04-10T07:52:55.642Z,4.90
2019-04-10T07:55:22.806Z,5.10
2019-04-10T07:57:50.663Z,5.30
2019-04-10T08:00:18.120Z,5.40
2019-04-10T08:02:44.393Z,5.50
2019-04-10T08:05:10.635Z,5.50
2019-04-10T08:07:38.766Z,5.50
2019-04-10T08:10:05.872Z,5.40
2019-04-10T08:12:39.388Z,5.50
2019-04-10T08:15:00.677Z,5.60
2019-04-10T08:17:26.923Z,5.60
2019-04-10T08:19:53.103Z,5.80
2019-04-10T08:22:20.169Z,6.00
2019-04-10T08:24:47.291Z,6.00
2019-04-10T08:27:13.733Z,7.00
2019-04-10T08:32:07.762Z,6.30
2019-04-10T08:34:34.036Z,6.50
2019-04-10T08:37:00.123Z,6.80
2019-04-10T08:39:33.939Z,7.10
2019-04-10T08:41:54.399Z,7.20
2019-04-10T08:44:20.584Z,7.30
2019-04-10T08:46:46.639Z,7.30
2019-04-10T08:49:12.694Z,7.20
2019-04-10T08:51:39.452Z,7.00
2019-04-10T08:54:05.654Z,6.80
2019-04-10T08:56:32.296Z,6.80
2019-04-10T08:58:59.279Z,6.60
2019-04-10T09:01:25.455Z,6.50
2019-04-10T09:03:51.502Z,6.70
2019-04-10T09:06:17.590Z,6.90
2019-04-10T09:08:43.759Z,7.20
2019-04-10T09:11:09.811Z,7.50
2019-04-10T09:13:36.793Z,7.90
2019-04-10T09:16:03.148Z,8.00
2019-04-10T09:18:29.515Z,8.10
2019-04-10T09:20:55.675Z,8.20
2019-04-10T09:23:30.730Z,8.20
2019-04-10T09:25:49.703Z,8.40
2019-04-10T09:28:16.080Z,8.50
2019-04-10T09:30:42.760Z,8.50
2019-04-10T09:33:18.734Z,8.50
2019-04-10T09:35:38.358Z,8.40
2019-04-10T09:38:04.598Z,8.60
2019-04-10T09:42:58.355Z,8.50
2019-04-10T09:45:25.183Z,8.50
2019-04-10T09:47:52.327Z,8.60
2019-04-10T09:50:19.325Z,8.60
2019-04-10T09:52:46.210Z,8.70
2019-04-10T09:55:12.432Z,8.70
2019-04-10T09:57:38.483Z,8.60
2019-04-10T10:00:07.442Z,8.40
2019-04-10T10:02:33.805Z,8.30
2019-04-10T10:05:00.046Z,8.20
2019-04-10T10:07:26.382Z,8.20
2019-04-10T10:09:52.536Z,8.30
2019-04-10T10:12:18.583Z,8.50
2019-04-10T10:14:44.640Z,8.60
2019-04-10T10:17:10.739Z,8.40
2019-04-10T10:19:36.881Z,8.20
2019-04-10T10:22:04.683Z,8.20
2019-04-10T10:24:31.126Z,8.00
2019-04-10T10:26:57.767Z,7.90
2019-04-10T10:29:23.947Z,7.70
2019-04-10T10:31:52.184Z,7.70
2019-04-10T10:34:18.471Z,7.60
2019-04-10T10:36:47.404Z,7.70
2019-04-10T10:39:17.183Z,7.80
2019-04-10T10:41:44.640Z,8.10
2019-04-10T10:44:11.143Z,8.30
2019-04-10T10:46:37.758Z,8.40
2019-04-10T10:49:04.230Z,8.40
2019-04-10T10:51:30.885Z,8.50
2019-04-10T10:54:00.088Z,8.60
2019-04-10T10:56:25.228Z,8.60
2019-04-10T10:58:53.024Z,8.60
2019-04-10T11:01:19.969Z,8.80
2019-04-10T11:03:46.687Z,8.70
2019-04-10T11:06:12.940Z,8.60
2019-04-10T11:08:39.848Z,8.50
2019-04-10T11:11:06.251Z,8.30
2019-04-10T11:13:33.157Z,8.10
2019-04-10T11:16:03.713Z,7.90
2019-04-10T11:18:28.615Z,7.70
2019-04-10T11:21:00.711Z,7.80
2019-04-10T11:23:24.464Z,7.80
2019-04-10T11:25:50.815Z,7.80
2019-04-10T11:28:18.563Z,7.90
2019-04-10T11:30:44.986Z,8.00
2019-04-10T11:33:12.391Z,8.10
2019-04-10T11:35:39.683Z,8.30
2019-04-10T11:40:34.283Z,8.90
2019-04-10T11:43:03.535Z,9.10
2019-04-10T11:45:34.799Z,9.40
2019-04-10T11:47:56.755Z,9.40
2019-04-10T11:50:25.312Z,9.50
2019-04-10T11:55:21.005Z,9.70
2019-04-10T11:57:49.016Z,9.90
2019-04-10T12:00:20.358Z,10.20
2019-04-10T12:02:47.365Z,10.30
2019-04-10T12:08:14.518Z,10.10
2019-04-10T12:12:37.586Z,10.00
2019-04-10T12:15:05.980Z,10.00
2019-04-10T12:17:32.099Z,10.20
2019-04-10T12:19:58.179Z,10.20
2019-04-10T12:22:24.344Z,10.40
2019-04-10T12:24:51.616Z,10.40
2019-04-10T12:27:17.870Z,10.40
2019-04-10T12:29:43.919Z,10.60
2019-04-10T12:32:10.089Z,10.90
2019-04-10T12:34:36.195Z,10.80
2019-04-10T12:37:02.883Z,10.40
2019-04-10T12:39:30.061Z,10.40
2019-04-10T12:41:57.470Z,10.10
2019-04-10T12:44:23.719Z,9.80
2019-04-10T12:46:49.771Z,9.50
2019-04-10T12:49:15.827Z,9.30
2019-04-10T12:51:41.879Z,9.20
2019-04-10T12:54:08.009Z,9.30
2019-04-10T12:56:34.614Z,9.40
2019-04-10T12:59:01.367Z,9.50
2019-04-10T13:01:27.503Z,9.60
2019-04-10T13:03:53.713Z,9.80
2019-04-10T13:06:20.025Z,9.90
2019-04-10T13:08:57.830Z,10.00
2019-04-10T13:11:14.643Z,10.10
2019-04-10T13:13:40.712Z,10.10
2019-04-10T13:16:07.796Z,10.10
2019-04-10T13:18:33.940Z,10.10
2019-04-10T13:21:00.050Z,10.10
2019-04-10T13:23:26.151Z,10.20
2019-04-10T13:25:59.196Z,10.30
2019-04-10T13:28:20.258Z,10.40
2019-04-10T13:30:51.429Z,10.40
2019-04-10T13:33:14.290Z,10.50
2019-04-10T13:35:40.428Z,10.60
2019-04-10T13:38:06.763Z,10.70
2019-04-10T13:40:32.964Z,10.80
2019-04-10T13:42:59.015Z,10.80
2019-04-10T13:46:20.487Z,10.30
2019-04-10T13:48:47.248Z,10.30
2019-04-10T13:51:13.512Z,10.20
2019-04-10T13:53:39.900Z,9.90
2019-04-10T13:56:06.549Z,9.60
2019-04-10T13:58:33.209Z,9.20
2019-04-10T14:00:59.435Z,9.10
2019-04-10T14:03:26.073Z,9.10
2019-04-10T14:05:52.906Z,9.00
2019-04-10T14:08:19.530Z,9.10
2019-04-10T14:10:46.703Z,9.30
2019-04-10T14:13:13.665Z,9.70
2019-04-10T14:15:40.009Z,10.20
2019-04-10T14:18:06.562Z,10.70
2019-04-10T14:20:32.623Z,10.80
2019-04-10T14:23:06.391Z,10.80
2019-04-10T14:25:51.729Z,10.90
2019-04-10T14:28:21.858Z,10.60
2019-04-10T14:30:47.863Z,10.20
2019-04-10T14:33:14.906Z,9.80
2019-04-10T14:35:41.145Z,9.30
2019-04-10T14:38:08.579Z,9.20
2019-04-10T14:40:35.890Z,9.10
2019-04-10T14:43:03.148Z,9.20
2019-04-10T14:45:29.698Z,9.20
2019-04-10T14:47:56.959Z,9.20
2019-04-10T14:50:24.244Z,9.10
2019-04-10T14:52:50.331Z,8.90
2019-04-10T14:55:16.641Z,8.80
2019-04-10T14:57:43.271Z,8.90
2019-04-10T15:00:20.503Z,9.00
2019-04-10T15:02:46.581Z,9.10
2019-04-10T15:05:13.372Z,9.20
2019-04-10T15:07:39.564Z,9.30
2019-04-10T15:10:06.327Z,9.50
2019-04-10T15:12:32.383Z,9.70
2019-04-10T15:14:59.547Z,9.80
2019-04-10T15:17:25.807Z,9.90
2019-04-10T15:19:52.592Z,9.80
2019-04-10T15:22:20.034Z,9.90
2019-04-10T15:24:46.940Z,9.90
2019-04-10T15:27:13.238Z,9.40
2019-04-10T15:29:39.333Z,9.30
2019-04-10T15:32:06.356Z,9.10
2019-04-10T15:34:32.697Z,8.90
2019-04-10T15:36:58.747Z,8.80
2019-04-10T15:39:32.123Z,8.60
2019-04-10T15:41:52.779Z,8.50
2019-04-10T15:44:18.829Z,8.40
2019-04-10T15:46:45.631Z,8.40
2019-04-10T15:49:13.131Z,8.50
2019-04-10T15:51:39.437Z,8.50
2019-04-10T15:54:05.622Z,8.60
2019-04-10T15:56:31.904Z,8.60
2019-04-10T15:58:58.108Z,8.50
2019-04-10T16:01:26.922Z,8.50
2019-04-10T16:03:52.770Z,8.50
2019-04-10T16:06:18.876Z,8.40
2019-04-10T16:08:45.143Z,8.40
2019-04-10T16:11:30.018Z,8.30
2019-04-10T16:13:59.075Z,8.20
2019-04-10T16:16:33.975Z,8.10
2019-04-10T16:19:18.335Z,8.10
2019-04-10T16:21:45.729Z,8.00
2019-04-10T16:24:16.687Z,8.00
2019-04-10T16:26:43.287Z,7.90
2019-04-10T16:29:09.660Z,7.90
2019-04-10T16:31:35.761Z,7.90
2019-04-10T16:34:01.916Z,7.70
2019-04-10T16:36:27.996Z,7.70
2019-04-10T16:38:58.933Z,7.50
2019-04-10T16:41:26.799Z,7.50
2019-04-10T16:43:53.187Z,7.50
2019-04-10T16:46:20.414Z,7.50
2019-04-10T16:48:48.441Z,7.50
2019-04-10T16:51:14.744Z,7.50
2019-04-10T16:53:41.264Z,7.50
2019-04-10T16:56:07.471Z,7.60
2019-04-10T16:58:33.908Z,7.60
2019-04-10T17:01:00.160Z,7.60
2019-04-10T17:03:27.513Z,7.70
2019-04-10T17:05:53.849Z,7.70
2019-04-10T17:08:19.967Z,7.60
2019-04-10T17:10:46.040Z,7.70
2019-04-10T17:13:12.097Z,7.60
2019-04-10T17:15:39.833Z,7.40
2019-04-10T17:18:06.646Z,7.30
2019-04-10T17:20:32.965Z,7.20
2019-04-10T17:23:00.300Z,7.10
2019-04-10T17:25:26.645Z,7.10
2019-04-10T17:27:52.740Z,7.00
2019-04-10T17:30:19.904Z,6.90
2019-04-10T17:32:46.627Z,6.80
2019-04-10T17:35:13.778Z,6.80
2019-04-10T17:37:42.131Z,6.80
2019-04-10T17:40:25.021Z,6.80
2019-04-10T17:42:39.441Z,6.80
2019-04-10T17:45:07.278Z,6.90
2019-04-10T17:47:33.503Z,7.00
2019-04-10T17:50:00.275Z,7.00
2019-04-10T17:52:27.127Z,6.90
2019-04-10T17:54:53.470Z,6.80
2019-04-10T17:57:19.604Z,6.70
2019-04-10T17:59:46.832Z,6.50
2019-04-10T18:02:13.738Z,6.40
2019-04-10T18:04:40.136Z,6.20
2019-04-10T18:07:06.351Z,6.10
2019-04-10T18:09:33.303Z,6.00
2019-04-10T18:12:00.844Z,5.90
2019-04-10T18:14:27.215Z,5.80
2019-04-10T18:16:54.116Z,5.70
2019-04-10T18:19:21.287Z,5.60
2019-04-10T18:21:47.862Z,5.50
2019-04-10T18:24:14.160Z,5.50
2019-04-10T18:26:40.259Z,5.40
2019-04-10T18:29:06.408Z,5.40
2019-04-10T18:31:32.646Z,5.30
2019-04-10T18:33:58.845Z,5.20
2019-04-10T18:36:24.894Z,5.20
2019-04-10T18:38:51.484Z,5.10
2019-04-10T18:41:19.744Z,5.00
2019-04-10T18:43:46.624Z,5.00
2019-04-10T18:46:16.429Z,5.00
2019-04-10T18:48:41.814Z,4.90
2019-04-10T18:51:10.864Z,4.80
2019-04-10T18:53:37.216Z,4.80
2019-04-10T18:56:03.439Z,4.70
2019-04-10T18:58:31.688Z,4.60
2019-04-10T19:01:03.050Z,4.60
2019-04-10T19:03:45.186Z,4.50
2019-04-10T19:06:20.536Z,4.50
2019-04-10T19:09:00.044Z,4.40
2019-04-10T19:11:22.784Z,4.40
2019-04-10T19:13:42.866Z,4.40
2019-04-10T19:16:08.994Z,4.30
2019-04-10T19:18:35.609Z,4.30
2019-04-10T19:21:03.228Z,4.20
2019-04-10T19:23:29.491Z,4.30
2019-04-10T19:25:56.716Z,4.20
2019-04-10T19:28:31.678Z,4.20
2019-04-10T19:30:53.183Z,4.20
2019-04-10T19:33:19.394Z,4.20
2019-04-10T19:35:45.567Z,4.20
2019-04-10T19:38:11.730Z,4.20
2019-04-10T19:40:38.718Z,4.20
2019-04-10T19:43:06.060Z,4.20
2019-04-10T19:45:34.121Z,4.10
2019-04-10T19:48:01.169Z,4.20
2019-04-10T19:50:27.750Z,4.10
2019-04-10T19:52:54.936Z,4.10
2019-04-10T19:55:21.971Z,4.10
2019-04-10T19:57:48.198Z,4.10
2019-04-10T20:00:16.528Z,4.10
2019-04-10T20:02:43.572Z,4.10
2019-04-10T20:05:09.913Z,4.10
2019-04-10T20:07:36.086Z,4.10
2019-04-10T20:10:03.958Z,4.10
2019-04-10T20:12:30.754Z,4.10
2019-04-10T20:14:57.382Z,4.10
2019-04-10T20:17:24.053Z,4.10
2019-04-10T20:19:51.785Z,4.10
2019-04-10T20:22:18.852Z,4.10
2019-04-10T20:24:45.157Z,4.10
2019-04-10T20:27:11.982Z,4.10
2019-04-10T20:29:39.252Z,4.10
2019-04-10T20:32:05.839Z,4.10
2019-04-10T20:34:32.044Z,4.10
2019-04-10T20:37:00.949Z,4.10
2019-04-10T20:39:27.311Z,4.10
2019-04-10T20:41:56.298Z,4.10
2019-04-10T20:44:22.696Z,4.10
2019-04-10T20:46:48.886Z,4.10
2019-04-10T20:49:16.187Z,4.10
2019-04-10T20:51:42.519Z,4.00
2019-04-10T20:54:08.667Z,4.00
2019-04-10T20:56:34.877Z,4.10
2019-04-10T20:59:01.513Z,4.00
2019-04-10T21:01:28.792Z,4.00
2019-04-10T21:03:55.047Z,4.00
2019-04-10T21:06:21.117Z,4.00
2019-04-10T21:08:47.272Z,3.90
2019-04-10T21:11:13.872Z,3.90
2019-04-10T21:13:40.516Z,3.90
2019-04-10T21:16:07.119Z,3.90
2019-04-10T21:18:33.509Z,3.90
2019-04-10T21:20:59.670Z,4.00
2019-04-10T21:23:25.760Z,3.90
2019-04-10T21:25:51.927Z,3.90
2019-04-10T21:28:18.366Z,3.90
2019-04-10T21:30:46.580Z,3.90
2019-04-10T21:33:26.796Z,3.90
2019-04-10T21:35:54.072Z,3.90
2019-04-10T21:38:21.374Z,3.90
2019-04-10T21:40:47.535Z,3.80
2019-04-10T21:43:14.363Z,3.80
2019-04-10T21:45:41.286Z,3.70
2019-04-10T21:50:35.594Z,3.70
2019-04-10T21:53:01.790Z,3.60
2019-04-10T21:55:29.064Z,3.60
2019-04-10T21:57:55.467Z,3.60
2019-04-10T22:00:40.817Z,3.60
2019-04-10T22:03:07.093Z,3.60
2019-04-10T22:05:35.113Z,3.50
2019-04-10T22:08:03.132Z,3.50
2019-04-10T22:10:32.125Z,3.50
2019-04-10T22:12:59.510Z,3.40
2019-04-10T22:15:30.942Z,3.40
2019-04-10T22:17:57.152Z,3.40
2019-04-10T22:20:23.548Z,3.40
2019-04-10T22:22:49.788Z,3.40
2019-04-10T22:25:15.839Z,3.30
2019-04-10T22:27:41.919Z,3.30
2019-04-10T22:30:08.449Z,3.30
2019-04-10T22:32:35.303Z,3.40
2019-04-10T22:35:03.378Z,3.40
2019-04-10T22:37:29.842Z,3.40
2019-04-10T22:39:56.641Z,3.30
2019-04-10T22:42:36.258Z,3.40
2019-04-10T22:44:50.781Z,3.40
2019-04-10T22:47:16.931Z,3.40
2019-04-10T22:49:43.108Z,3.40
2019-04-10T22:52:09.183Z,3.40
2019-04-10T22:54:35.240Z,3.40
2019-04-10T22:57:01.331Z,3.40
2019-04-10T22:59:28.396Z,3.40
2019-04-10T23:02:03.409Z,3.50
2019-04-10T23:04:22.628Z,3.50
2019-04-10T23:06:49.326Z,3.50
2019-04-10T23:09:15.865Z,3.50
2019-04-10T23:11:45.005Z,3.50
2019-04-10T23:14:10.232Z,3.50
2019-04-10T23:16:36.476Z,3.50
2019-04-10T23:19:03.641Z,3.50
2019-04-10T23:21:30.385Z,3.50
2019-04-10T23:23:57.142Z,3.60
2019-04-10T23:26:23.360Z,3.60
2019-04-10T23:28:49.571Z,3.60
2019-04-10T23:31:15.794Z,3.60
2019-04-10T23:33:42.007Z,3.60
2019-04-10T23:36:08.268Z,3.60
2019-04-10T23:38:35.415Z,3.60
2019-04-10T23:41:01.645Z,3.50
2019-04-10T23:43:27.701Z,3.50
2019-04-10T23:45:53.855Z,3.50
2019-04-10T23:48:20.427Z,3.50
2019-04-10T23:50:46.607Z,3.50
2019-04-10T23:53:12.661Z,3.50
2019-04-10T23:55:39.685Z,3.50
2019-04-10T23:58:09.603Z,3.50
